createdAt,value
2018-09-01T00:00:26.087Z,61.9
2018-09-01T00:01:16.388Z,61.9
2018-09-01T00:02:05.924Z,61.9
2018-09-01T00:02:56.221Z,61.9
2018-09-01T00:03:46.626Z,61.9
2018-09-01T00:04:36.103Z,61.9
2018-09-01T00:05:26.743Z,61.9
2018-09-01T00:06:16.529Z,61.8
2018-09-01T00:07:06.293Z,61.8
2018-09-01T00:07:56.411Z,61.8
2018-09-01T00:08:46.428Z,61.8
2018-09-01T00:09:37.013Z,61.8
2018-09-01T00:10:27.159Z,61.8
2018-09-01T00:11:18.097Z,61.8
2018-09-01T00:12:06.953Z,61.7
2018-09-01T00:31:31.403Z,61.3
2018-09-01T00:32:21.409Z,61.3
2018-09-01T00:33:11.215Z,61.3
2018-09-01T00:34:01.255Z,61.3
2018-09-01T00:34:51.639Z,61.3
2018-09-01T00:35:41.113Z,61.2
2018-09-01T00:36:30.842Z,61.1
2018-09-01T00:37:21.573Z,61.1
2018-09-01T00:38:11.312Z,61
2018-09-01T00:39:01.097Z,60.9
2018-09-01T00:39:52.021Z,60.9
2018-09-01T00:40:41.503Z,60.9
2018-09-01T00:41:32.366Z,60.9
2018-09-01T00:42:21.039Z,60.8
2018-09-01T00:43:12.228Z,60.8
2018-09-01T00:44:02.298Z,60.8
2018-09-01T00:44:51.524Z,60.8
2018-09-01T00:45:42.153Z,60.8
2018-09-01T00:46:32.519Z,60.8
2018-09-01T00:47:22.021Z,60.7
2018-09-01T00:48:12.869Z,60.7
2018-09-01T00:49:01.841Z,60.7
2018-09-01T00:49:52.751Z,60.6
2018-09-01T00:50:42.258Z,60.6
2018-09-01T00:51:32.603Z,60.6
2018-09-01T00:52:22.688Z,60.6
2018-09-01T00:53:13.055Z,60.6
2018-09-01T00:54:02.856Z,60.6
2018-09-01T00:54:52.133Z,60.6
2018-09-01T00:55:42.948Z,60.5
2018-09-01T00:56:33.025Z,60.5
2018-09-01T00:57:23.064Z,60.5
2018-09-01T00:58:12.652Z,60.5
2018-09-01T00:59:03.023Z,60.4
2018-09-01T00:59:53.000Z,60.4
2018-09-01T01:00:42.727Z,60.4
2018-09-01T01:01:33.682Z,60.4
2018-09-01T01:02:22.994Z,60.4
2018-09-01T01:03:13.754Z,60.4
2018-09-01T01:04:03.578Z,60.4
2018-09-01T01:04:53.367Z,60.4
2018-09-01T01:05:43.712Z,60.3
2018-09-01T01:06:33.779Z,60.3
2018-09-01T01:07:23.840Z,60.3
2018-09-01T01:08:14.174Z,60.3
2018-09-01T01:09:04.249Z,60.3
2018-09-01T01:09:54.077Z,60.3
2018-09-01T01:10:43.857Z,60.3
2018-09-01T01:11:34.169Z,60.2
2018-09-01T01:12:24.532Z,60.2
2018-09-01T01:13:14.307Z,60.2
2018-09-01T01:14:04.371Z,60.1
2018-09-01T01:14:54.419Z,60.1
2018-09-01T01:15:44.496Z,60.1
2018-09-01T01:16:34.824Z,60.1
2018-09-01T01:17:24.984Z,60.1
2018-09-01T01:18:14.644Z,60.1
2018-09-01T01:19:04.219Z,60.1
2018-09-01T01:19:54.539Z,60
2018-09-01T01:20:44.597Z,60
2018-09-01T01:21:34.676Z,60
2018-09-01T01:22:24.744Z,59.9
2018-09-01T01:23:14.792Z,59.9
2018-09-01T01:24:05.199Z,59.9
2018-09-01T01:24:55.486Z,59.9
2018-09-01T01:25:45.557Z,59.9
2018-09-01T01:26:35.634Z,59.9
2018-09-01T01:27:25.674Z,59.9
2018-09-01T01:28:15.765Z,59.9
2018-09-01T01:29:05.849Z,59.8
2018-09-01T01:29:55.638Z,59.8
2018-09-01T01:30:45.391Z,59.8
2018-09-01T01:31:35.984Z,59.8
2018-09-01T01:32:25.759Z,59.8
2018-09-01T01:33:15.557Z,59.8
2018-09-01T01:34:05.880Z,59.8
2018-09-01T01:34:55.969Z,59.7
2018-09-01T01:35:45.775Z,59.7
2018-09-01T01:36:35.804Z,59.7
2018-09-01T01:37:26.218Z,59.7
2018-09-01T01:38:16.240Z,59.6
2018-09-01T01:39:06.832Z,59.6
2018-09-01T01:39:56.083Z,59.6
2018-09-01T01:40:46.463Z,59.6
2018-09-01T01:41:36.227Z,59.6
2018-09-01T01:42:25.981Z,59.6
2018-09-01T01:43:16.345Z,59.6
2018-09-01T01:44:06.389Z,59.5
2018-09-01T01:44:56.458Z,59.5
2018-09-01T01:45:47.097Z,59.5
2018-09-01T01:46:36.890Z,59.4
2018-09-01T01:47:26.689Z,59.4
2018-09-01T01:48:17.275Z,59.4
2018-09-01T01:49:06.243Z,59.4
2018-09-01T01:49:56.858Z,59.4
2018-09-01T01:50:47.496Z,59.4
2018-09-01T01:51:37.559Z,59.4
2018-09-01T01:52:26.513Z,59.4
2018-09-01T01:53:17.410Z,59.3
2018-09-01T01:54:07.204Z,59.3
2018-09-01T01:54:57.820Z,59.3
2018-09-01T01:55:47.920Z,59.3
2018-09-01T01:56:37.368Z,59.3
2018-09-01T01:57:28.002Z,59.3
2018-09-01T01:58:16.937Z,59.3
2018-09-01T01:59:07.869Z,59.3
2018-09-01T01:59:57.630Z,59.2
2018-09-01T02:00:47.974Z,59.2
2018-09-01T02:01:37.797Z,59.1
2018-09-01T02:02:28.135Z,59.1
2018-09-01T02:03:18.479Z,59.1
2018-09-01T02:04:08.555Z,59.1
2018-09-01T02:04:57.759Z,59.1
2018-09-01T02:05:48.106Z,59.1
2018-09-01T02:06:38.731Z,59.1
2018-09-01T02:07:29.023Z,59
2018-09-01T02:08:18.561Z,59
2018-09-01T02:09:08.641Z,59
2018-09-01T02:09:58.682Z,59
2018-09-01T02:10:49.038Z,58.9
2018-09-01T02:11:39.108Z,58.9
2018-09-01T02:12:29.180Z,58.9
2018-09-01T02:13:18.753Z,58.9
2018-09-01T02:14:09.128Z,58.9
2018-09-01T02:14:59.111Z,58.9
2018-09-01T02:15:48.868Z,58.9
2018-09-01T02:16:38.932Z,58.9
2018-09-01T02:17:28.976Z,58.9
2018-09-01T02:18:18.785Z,58.8
2018-09-01T02:19:09.685Z,58.8
2018-09-01T02:19:59.493Z,58.8
2018-09-01T02:20:49.250Z,58.8
2018-09-01T02:21:39.855Z,58.8
2018-09-01T02:22:29.643Z,58.8
2018-09-01T02:23:19.725Z,58.7
2018-09-01T02:24:10.092Z,58.7
2018-09-01T02:24:59.847Z,58.7
2018-09-01T02:25:49.641Z,58.7
2018-09-01T02:26:40.005Z,58.7
2018-09-01T02:27:29.807Z,58.6
2018-09-01T02:28:20.458Z,58.6
2018-09-01T02:29:09.632Z,58.6
2018-09-01T02:33:20.252Z,58.5
2018-09-01T02:34:10.318Z,58.5
2018-09-01T02:35:00.871Z,58.5
2018-09-01T02:35:50.687Z,58.4
2018-09-01T02:36:40.797Z,58.4
2018-09-01T02:37:31.122Z,58.4
2018-09-01T02:38:20.624Z,58.4
2018-09-01T02:39:10.641Z,58.4
2018-09-01T02:40:01.286Z,58.4
2018-09-01T02:40:50.802Z,58.4
2018-09-01T02:41:41.139Z,58.4
2018-09-01T02:42:30.368Z,58.3
2018-09-01T02:43:21.322Z,58.3
2018-09-01T02:44:11.346Z,58.3
2018-09-01T02:45:01.659Z,58.3
2018-09-01T02:45:51.203Z,58.3
2018-09-01T02:46:41.833Z,58.3
2018-09-01T02:47:31.016Z,58.3
2018-09-01T02:48:21.379Z,58.3
2018-09-01T02:49:11.439Z,58.2
2018-09-01T02:50:02.089Z,58.2
2018-09-01T02:50:51.598Z,58.2
2018-09-01T02:51:41.853Z,58.2
2018-09-01T02:52:31.983Z,58.2
2018-09-01T02:53:22.069Z,58.1
2018-09-01T02:54:12.085Z,58.1
2018-09-01T02:55:01.944Z,58.1
2018-09-01T02:55:52.531Z,58.1
2018-09-01T02:56:42.003Z,58.1
2018-09-01T02:57:32.653Z,58.1
2018-09-01T02:58:21.868Z,58.1
2018-09-01T02:59:12.768Z,58
2018-09-01T03:00:02.895Z,58
2018-09-01T03:00:53.188Z,58
2018-09-01T03:01:42.430Z,58
2018-09-01T03:02:32.468Z,57.9
2018-09-01T03:03:22.250Z,57.9
2018-09-01T03:04:12.870Z,57.9
2018-09-01T03:05:03.215Z,57.9
2018-09-01T03:05:52.674Z,57.9
2018-09-01T03:06:43.342Z,57.9
2018-09-01T03:07:32.612Z,57.9
2018-09-01T03:08:23.020Z,57.9
2018-09-01T03:09:13.270Z,57.8
2018-09-01T03:10:03.612Z,57.8
2018-09-01T03:10:54.167Z,57.8
2018-09-01T03:11:43.767Z,57.8
2018-09-01T03:15:03.717Z,57.7
2018-09-01T03:15:54.291Z,57.7
2018-09-01T03:16:43.854Z,57.7
2018-09-01T03:17:34.184Z,57.7
2018-09-01T03:18:23.975Z,57.6
2018-09-01T03:19:14.059Z,57.6
2018-09-01T03:20:04.411Z,57.6
2018-09-01T03:20:54.418Z,57.6
2018-09-01T03:21:44.249Z,57.6
2018-09-01T03:22:34.074Z,57.6
2018-09-01T03:23:24.650Z,57.6
2018-09-01T03:24:13.924Z,57.6
2018-09-01T03:25:04.216Z,57.6
2018-09-01T03:25:54.859Z,57.5
2018-09-01T03:26:44.368Z,57.5
2018-09-01T03:27:35.001Z,57.5
2018-09-01T03:28:25.031Z,57.5
2018-09-01T03:29:14.796Z,57.4
2018-09-01T03:30:04.648Z,57.4
2018-09-01T03:30:55.239Z,57.4
2018-09-01T03:31:44.745Z,57.4
2018-09-01T03:32:35.075Z,57.4
2018-09-01T03:33:25.404Z,57.4
2018-09-01T03:34:15.258Z,57.4
2018-09-01T03:35:04.998Z,57.4
2018-09-01T03:35:56.188Z,57.3
2018-09-01T03:36:45.385Z,57.3
2018-09-01T03:37:35.752Z,57.3
2018-09-01T03:38:25.805Z,57.3
2018-09-01T03:39:15.046Z,57.3
2018-09-01T03:40:05.655Z,57.3
2018-09-01T03:40:55.757Z,57.3
2018-09-01T03:41:46.072Z,57.2
2018-09-01T03:42:35.528Z,57.3
2018-09-01T03:43:25.328Z,57.2
2018-09-01T03:44:15.413Z,57.2
2018-09-01T03:45:05.751Z,57.2
2018-09-01T03:45:55.522Z,57.1
2018-09-01T03:46:46.245Z,57.2
2018-09-01T03:47:35.961Z,57.1
2018-09-01T03:48:26.316Z,57.1
2018-09-01T03:49:16.355Z,57.1
2018-09-01T03:50:06.459Z,57.1
2018-09-01T03:50:56.217Z,57.1
2018-09-01T03:51:46.572Z,57.1
2018-09-01T03:52:36.333Z,57.1
2018-09-01T03:53:26.697Z,57
2018-09-01T03:54:16.482Z,57
2018-09-01T03:55:06.827Z,57
2018-09-01T03:55:56.872Z,56.9
2018-09-01T03:56:47.004Z,57
2018-09-01T03:57:37.004Z,56.9
2018-09-01T03:58:27.334Z,56.9
2018-09-01T03:59:16.852Z,56.9
2018-09-01T04:00:07.219Z,56.9
2018-09-01T04:00:57.269Z,56.9
2018-09-01T04:01:47.572Z,56.9
2018-09-01T04:02:37.421Z,56.9
2018-09-01T04:03:27.721Z,56.9
2018-09-01T04:04:17.257Z,56.8
2018-09-01T04:05:07.883Z,56.8
2018-09-01T04:05:57.904Z,56.8
2018-09-01T04:06:47.967Z,56.8
2018-09-01T04:07:38.053Z,56.8
2018-09-01T04:08:28.179Z,56.8
2018-09-01T04:09:18.189Z,56.8
2018-09-01T04:10:08.251Z,56.8
2018-09-01T04:10:57.811Z,56.8
2018-09-01T04:11:47.803Z,56.7
2018-09-01T04:12:38.137Z,56.7
2018-09-01T04:13:27.949Z,56.7
2018-09-01T04:14:18.563Z,56.6
2018-09-01T04:15:08.344Z,56.6
2018-09-01T04:15:58.378Z,56.6
2018-09-01T04:16:48.463Z,56.6
2018-09-01T04:17:39.113Z,56.6
2018-09-01T04:18:28.334Z,56.6
2018-09-01T04:19:18.970Z,56.6
2018-09-01T04:20:09.016Z,56.6
2018-09-01T04:20:58.785Z,56.5
2018-09-01T04:21:48.892Z,56.5
2018-09-01T04:22:39.235Z,56.5
2018-09-01T04:23:28.737Z,56.5
2018-09-01T04:24:19.043Z,56.5
2018-09-01T04:25:09.131Z,56.4
2018-09-01T04:25:59.185Z,56.4
2018-09-01T04:26:49.801Z,56.4
2018-09-01T04:27:39.321Z,56.4
2018-09-01T04:28:29.635Z,56.4
2018-09-01T04:29:19.495Z,56.4
2018-09-01T04:30:09.521Z,56.4
2018-09-01T04:30:59.840Z,56.4
2018-09-01T04:31:49.661Z,56.3
2018-09-01T04:32:39.990Z,56.4
2018-09-01T04:33:29.718Z,56.3
2018-09-01T04:34:19.538Z,56.3
2018-09-01T04:35:10.189Z,56.3
2018-09-01T04:35:59.961Z,56.3
2018-09-01T04:36:50.558Z,56.3
2018-09-01T04:37:40.098Z,56.3
2018-09-01T04:38:29.842Z,56.3
2018-09-01T04:39:20.226Z,56.2
2018-09-01T04:40:10.266Z,56.3
2018-09-01T04:40:59.785Z,56.2
2018-09-01T04:41:50.957Z,56.2
2018-09-01T04:42:40.150Z,56.2
2018-09-01T05:00:17.404Z,55.9
2018-09-01T05:01:09.893Z,55.9
2018-09-01T05:01:58.124Z,55.9
2018-09-01T05:02:48.207Z,55.8
2018-09-01T05:03:37.461Z,55.8
2018-09-01T05:04:28.369Z,55.8
2018-09-01T05:05:17.229Z,55.8
2018-09-01T05:06:08.699Z,55.8
2018-09-01T05:06:57.761Z,55.8
2018-09-01T05:07:48.291Z,55.8
2018-09-01T05:08:37.494Z,55.8
2018-09-01T05:09:28.726Z,55.7
2018-09-01T05:10:18.446Z,55.7
2018-09-01T05:11:09.106Z,55.7
2018-09-01T05:11:58.883Z,55.7
2018-09-01T05:12:48.655Z,55.7
2018-09-01T05:13:38.617Z,55.7
2018-09-01T05:14:29.362Z,55.6
2018-09-01T05:15:19.110Z,55.6
2018-09-01T05:16:08.697Z,55.6
2018-09-01T05:16:58.444Z,55.6
2018-09-01T05:17:49.310Z,55.6
2018-09-01T05:18:39.168Z,55.6
2018-09-01T05:19:29.728Z,55.6
2018-09-01T05:20:18.955Z,55.6
2018-09-01T05:21:08.732Z,55.6
2018-09-01T05:21:59.356Z,55.5
2018-09-01T05:22:49.704Z,55.5
2018-09-01T05:23:39.775Z,55.5
2018-09-01T05:24:29.875Z,55.5
2018-09-01T05:25:19.675Z,55.4
2018-09-01T05:26:09.725Z,55.4
2018-09-01T05:26:59.754Z,55.4
2018-09-01T05:27:50.076Z,55.4
2018-09-01T05:28:39.900Z,55.4
2018-09-01T05:29:30.307Z,55.4
2018-09-01T05:30:20.034Z,55.4
2018-09-01T05:31:10.347Z,55.4
2018-09-01T05:32:00.150Z,55.4
2018-09-01T05:32:49.798Z,55.4
2018-09-01T05:33:40.307Z,55.4
2018-09-01T05:34:30.143Z,55.3
2018-09-01T05:35:19.833Z,55.3
2018-09-01T05:36:10.544Z,55.3
2018-09-01T05:37:00.571Z,55.3
2018-09-01T05:37:50.655Z,55.3
2018-09-01T05:38:40.395Z,55.3
2018-09-01T05:39:31.029Z,55.3
2018-09-01T05:40:20.527Z,55.3
2018-09-01T05:41:10.813Z,55.3
2018-09-01T05:42:00.886Z,55.2
2018-09-01T05:42:51.044Z,55.2
2018-09-01T05:43:41.513Z,55.2
2018-09-01T05:44:31.126Z,55.2
2018-09-01T05:45:21.477Z,55.2
2018-09-01T05:46:11.279Z,55.1
2018-09-01T05:47:01.586Z,55.1
2018-09-01T05:47:51.366Z,55.1
2018-09-01T05:48:41.191Z,55.1
2018-09-01T05:49:30.779Z,55.1
2018-09-01T05:50:21.943Z,55.1
2018-09-01T05:51:11.698Z,55.1
2018-09-01T05:52:02.259Z,55.1
2018-09-01T05:52:52.074Z,55.1
2018-09-01T05:53:41.838Z,55
2018-09-01T05:54:32.212Z,55
2018-09-01T05:55:21.702Z,55
2018-09-01T05:56:11.776Z,55
2018-09-01T05:57:02.068Z,54.9
2018-09-01T05:57:52.440Z,54.9
2018-09-01T05:58:41.920Z,54.9
2018-09-01T05:59:32.836Z,54.9
2018-09-01T06:00:22.225Z,54.9
2018-09-01T06:01:12.217Z,54.9
2018-09-01T06:02:03.051Z,54.9
2018-09-01T06:02:53.115Z,54.9
2018-09-01T06:03:42.070Z,54.9
2018-09-01T06:04:32.385Z,54.9
2018-09-01T06:05:23.007Z,54.8
2018-09-01T06:06:15.024Z,54.8
2018-09-01T06:07:03.162Z,54.8
2018-09-01T06:07:52.946Z,54.8
2018-09-01T06:08:43.269Z,54.8
2018-09-01T06:09:33.627Z,54.8
2018-09-01T06:10:23.105Z,54.8
2018-09-01T06:11:13.444Z,54.8
2018-09-01T06:12:03.220Z,54.8
2018-09-01T06:12:53.792Z,54.8
2018-09-01T06:13:43.091Z,54.8
2018-09-01T06:14:33.437Z,54.7
2018-09-01T06:15:23.502Z,54.7
2018-09-01T06:16:13.412Z,54.7
2018-09-01T06:17:03.676Z,54.7
2018-09-01T06:17:54.842Z,54.7
2018-09-01T06:18:44.072Z,54.6
2018-09-01T06:19:33.614Z,54.6
2018-09-01T06:20:23.881Z,54.6
2018-09-01T06:21:13.668Z,54.6
2018-09-01T06:22:04.303Z,54.6
2018-09-01T06:22:54.632Z,54.6
2018-09-01T06:23:44.501Z,54.6
2018-09-01T06:24:34.516Z,54.6
2018-09-01T06:25:24.337Z,54.6
2018-09-01T06:26:14.624Z,54.5
2018-09-01T06:27:04.425Z,54.5
2018-09-01T06:27:54.529Z,54.5
2018-09-01T06:28:44.508Z,54.5
2018-09-01T06:29:34.912Z,54.5
2018-09-01T06:30:25.001Z,54.5
2018-09-01T06:31:15.247Z,54.4
2018-09-01T06:32:05.098Z,54.4
2018-09-01T06:32:55.288Z,54.4
2018-09-01T06:33:45.486Z,54.4
2018-09-01T06:34:34.722Z,54.4
2018-09-01T06:35:24.779Z,54.4
2018-09-01T06:36:15.171Z,54.4
2018-09-01T06:37:04.700Z,54.4
2018-09-01T06:37:55.551Z,54.4
2018-09-01T06:38:45.322Z,54.3
2018-09-01T06:39:35.440Z,54.3
2018-09-01T06:40:25.274Z,54.3
2018-09-01T06:41:14.981Z,54.3
2018-09-01T06:42:05.128Z,54.3
2018-09-01T06:42:56.298Z,54.3
2018-09-01T06:43:46.218Z,54.3
2018-09-01T06:44:35.757Z,54.3
2018-09-01T06:45:26.100Z,54.3
2018-09-01T06:46:15.325Z,54.3
2018-09-01T06:47:06.217Z,54.3
2018-09-01T06:47:55.740Z,54.2
2018-09-01T06:48:46.315Z,54.2
2018-09-01T06:49:36.154Z,54.2
2018-09-01T06:50:26.147Z,54.2
2018-09-01T06:51:16.256Z,54.2
2018-09-01T06:52:06.349Z,54.1
2018-09-01T06:52:56.109Z,54.1
2018-09-01T06:53:46.447Z,54.1
2018-09-01T06:54:36.585Z,54.1
2018-09-01T06:55:26.344Z,54.1
2018-09-01T06:56:16.368Z,54.1
2018-09-01T06:57:07.012Z,54.1
2018-09-01T06:57:57.023Z,54.1
2018-09-01T06:58:47.108Z,54.1
2018-09-01T06:59:36.634Z,54.1
2018-09-01T07:00:26.694Z,54.1
2018-09-01T07:01:17.349Z,54
2018-09-01T07:02:07.127Z,54
2018-09-01T07:02:56.899Z,54
2018-09-01T07:03:47.482Z,54
2018-09-01T07:04:37.329Z,54
2018-09-01T07:05:26.788Z,53.9
2018-09-01T07:06:17.460Z,53.9
2018-09-01T07:07:07.773Z,53.9
2018-09-01T07:07:57.271Z,53.9
2018-09-01T07:08:48.564Z,53.9
2018-09-01T07:09:37.631Z,53.9
2018-09-01T07:10:27.550Z,53.9
2018-09-01T07:11:17.789Z,53.9
2018-09-01T07:12:07.591Z,53.9
2018-09-01T07:12:57.688Z,53.9
2018-09-01T07:13:48.332Z,53.9
2018-09-01T07:14:38.370Z,53.8
2018-09-01T07:15:28.123Z,53.8
2018-09-01T07:16:18.206Z,53.8
2018-09-01T07:17:07.500Z,53.8
2018-09-01T07:17:58.326Z,53.8
2018-09-01T07:18:48.133Z,53.8
2018-09-01T07:19:38.455Z,53.8
2018-09-01T07:20:28.470Z,53.8
2018-09-01T07:21:18.865Z,53.8
2018-09-01T07:22:08.685Z,53.8
2018-09-01T07:22:58.743Z,53.8
2018-09-01T07:23:48.497Z,53.7
2018-09-01T07:24:39.118Z,53.7
2018-09-01T07:25:29.165Z,53.7
2018-09-01T07:26:19.285Z,53.7
2018-09-01T07:27:09.060Z,53.7
2018-09-01T07:27:59.095Z,53.6
2018-09-01T07:28:49.442Z,53.6
2018-09-01T07:29:39.505Z,53.6
2018-09-01T07:30:31.250Z,53.6
2018-09-01T07:31:21.979Z,53.6
2018-09-01T07:32:09.997Z,53.6
2018-09-01T07:32:59.561Z,53.6
2018-09-01T07:33:49.680Z,53.6
2018-09-01T07:34:39.366Z,53.6
2018-09-01T07:35:30.303Z,53.6
2018-09-01T07:36:19.278Z,53.6
2018-09-01T07:37:10.114Z,53.5
2018-09-01T07:37:59.871Z,53.5
2018-09-01T07:38:50.246Z,53.5
2018-09-01T07:39:39.747Z,53.5
2018-09-01T07:40:30.597Z,53.5
2018-09-01T07:41:20.140Z,53.5
2018-09-01T07:42:09.941Z,53.4
2018-09-01T07:42:59.781Z,53.4
2018-09-01T07:43:49.303Z,53.4
2018-09-01T07:44:40.389Z,53.4
2018-09-01T07:45:30.471Z,53.4
2018-09-01T07:46:20.302Z,53.4
2018-09-01T07:47:10.463Z,53.4
2018-09-01T07:48:00.946Z,53.4
2018-09-01T07:48:51.033Z,53.4
2018-09-01T07:49:40.821Z,53.4
2018-09-01T07:50:31.158Z,53.4
2018-09-01T07:51:20.956Z,53.4
2018-09-01T07:52:10.741Z,53.3
2018-09-01T07:53:01.303Z,53.3
2018-09-01T07:53:50.841Z,53.3
2018-09-01T07:54:41.766Z,53.3
2018-09-01T07:55:31.538Z,53.3
2018-09-01T07:56:22.262Z,53.3
2018-09-01T07:57:11.457Z,53.3
2018-09-01T07:58:01.448Z,53.3
2018-09-01T07:58:51.025Z,53.3
2018-09-01T07:59:41.818Z,53.3
2018-09-01T08:00:31.929Z,53.2
2018-09-01T08:01:21.730Z,53.2
2018-09-01T08:02:11.784Z,53.2
2018-09-01T08:03:01.016Z,53.2
2018-09-01T08:03:52.471Z,53.2
2018-09-01T08:04:41.525Z,53.2
2018-09-01T08:05:32.337Z,53.1
2018-09-01T08:06:22.416Z,53.1
2018-09-01T08:07:12.417Z,53.1
2018-09-01T08:08:02.518Z,53.1
2018-09-01T08:08:52.088Z,53.1
2018-09-01T08:09:42.365Z,53.1
2018-09-01T08:10:32.414Z,53.1
2018-09-01T08:11:22.520Z,53.1
2018-09-01T08:12:12.587Z,53.1
2018-09-01T08:13:02.706Z,53.1
2018-09-01T08:13:54.150Z,53.1
2018-09-01T08:14:44.245Z,53
2018-09-01T08:15:32.297Z,53
2018-09-01T08:16:24.834Z,53
2018-09-01T08:17:12.749Z,53
2018-09-01T08:18:03.014Z,52.9
2018-09-01T08:18:52.616Z,52.9
2018-09-01T08:19:43.396Z,52.9
2018-09-01T08:20:32.938Z,52.9
2018-09-01T08:21:23.311Z,52.9
2018-09-01T08:22:12.551Z,52.9
2018-09-01T08:23:03.116Z,52.8
2018-09-01T08:23:53.750Z,52.8
2018-09-01T08:24:43.566Z,52.8
2018-09-01T08:25:33.613Z,52.7
2018-09-01T08:26:23.700Z,52.6
2018-09-01T08:27:13.448Z,52.6
2018-09-01T08:28:04.100Z,52.5
2018-09-01T08:28:54.143Z,52.4
2018-09-01T08:29:43.643Z,52.4
2018-09-01T08:33:04.173Z,52.3
2018-09-01T08:33:54.674Z,52.3
2018-09-01T08:34:44.613Z,52.3
2018-09-01T08:35:34.392Z,52.3
2018-09-01T08:36:24.159Z,52.3
2018-09-01T08:38:04.848Z,52.4
2018-09-01T08:38:54.942Z,52.4
2018-09-01T08:39:44.402Z,52.5
2018-09-01T08:40:34.213Z,52.6
2018-09-01T08:41:25.102Z,52.7
2018-09-01T08:42:15.212Z,52.8
2018-09-01T08:43:05.003Z,52.8
2018-09-01T08:43:54.748Z,52.9
2018-09-01T08:44:45.167Z,52.9
2018-09-01T08:45:34.890Z,53
2018-09-01T08:46:24.962Z,53.1
2018-09-01T08:47:15.334Z,53.1
2018-09-01T08:48:05.635Z,53.2
2018-09-01T08:48:55.445Z,53.3
2018-09-01T08:49:45.499Z,53.3
2018-09-01T08:50:36.084Z,53.4
2018-09-01T08:51:25.617Z,53.4
2018-09-01T08:52:15.681Z,53.4
2018-09-01T08:53:05.744Z,53.6
2018-09-01T08:53:56.119Z,53.6
2018-09-01T08:54:45.400Z,53.6
2018-09-01T08:55:35.943Z,53.7
2018-09-01T08:56:26.024Z,53.8
2018-09-01T08:57:15.803Z,53.8
2018-09-01T08:58:06.443Z,53.9
2018-09-01T09:14:51.168Z,55.1
2018-09-01T09:15:54.891Z,55.3
2018-09-01T09:16:29.490Z,55.3
2018-09-01T09:17:20.112Z,55.4
2018-09-01T09:18:10.378Z,55.4
2018-09-01T09:19:00.524Z,55.5
2018-09-01T09:19:49.959Z,55.6
2018-09-01T09:20:41.483Z,55.6
2018-09-01T09:21:31.177Z,55.7
2018-09-01T09:22:20.487Z,55.8
2018-09-01T09:23:25.610Z,55.9
2018-09-01T09:24:02.005Z,55.9
2018-09-01T09:24:50.902Z,56
2018-09-01T09:25:40.979Z,56.1
2018-09-01T09:26:30.961Z,56.1
2018-09-01T09:27:21.551Z,56.2
2018-09-01T09:28:10.594Z,56.3
2018-09-01T09:29:01.198Z,56.3
2018-09-01T09:30:06.359Z,56.4
2018-09-01T09:30:41.986Z,56.4
2018-09-01T09:31:31.306Z,56.6
2018-09-01T09:32:21.821Z,56.6
2018-09-01T09:33:11.070Z,56.7
2018-09-01T09:34:01.745Z,56.8
2018-09-01T09:35:06.551Z,56.8
2018-09-01T09:35:56.459Z,56.9
2018-09-01T09:36:46.979Z,57
2018-09-01T09:37:22.149Z,57.1
2018-09-01T09:38:11.785Z,57.1
2018-09-01T09:39:01.521Z,57.2
2018-09-01T09:39:52.402Z,57.2
2018-09-01T09:40:42.628Z,57.3
2018-09-01T09:42:22.993Z,57.4
2018-09-01T09:43:12.123Z,57.5
2018-09-01T09:44:02.206Z,57.6
2018-09-01T09:44:52.501Z,57.6
2018-09-01T09:45:42.782Z,57.7
2018-09-01T09:46:46.988Z,57.8
2018-09-01T09:47:22.701Z,57.9
2018-09-01T09:48:27.187Z,57.9
2018-09-01T09:49:02.831Z,58
2018-09-01T09:49:52.457Z,58.1
2018-09-01T09:50:57.347Z,58.1
2018-09-01T09:51:32.762Z,58.2
2018-09-01T09:52:38.236Z,58.3
2018-09-01T09:53:13.058Z,58.4
2018-09-01T09:54:02.962Z,58.4
2018-09-01T09:54:53.043Z,58.4
2018-09-01T09:55:43.348Z,58.5
2018-09-01T09:57:23.219Z,58.7
2018-09-01T09:58:28.496Z,58.8
2018-09-01T09:59:03.362Z,58.8
2018-09-01T09:59:53.681Z,58.9
2018-09-01T10:00:43.409Z,58.9
2018-09-01T10:01:34.076Z,59
2018-09-01T10:02:23.887Z,59.1
2018-09-01T10:03:13.894Z,59.1
2018-09-01T10:04:03.767Z,59.2
2018-09-01T10:04:54.339Z,59.3
2018-09-01T10:05:44.139Z,59.3
2018-09-01T10:07:23.957Z,59.5
2018-09-01T10:08:14.279Z,59.5
2018-09-01T10:09:04.470Z,59.6
2018-09-01T10:10:08.224Z,59.6
2018-09-01T10:10:44.002Z,59.8
2018-09-01T10:11:34.885Z,59.8
2018-09-01T10:12:24.712Z,59.9
2018-09-01T10:13:15.009Z,59.9
2018-09-01T10:14:04.553Z,60
2018-09-01T10:14:54.613Z,60.1
2018-09-01T10:15:45.261Z,60.1
2018-09-01T10:16:34.188Z,60.2
2018-09-01T10:17:25.349Z,60.3
2018-09-01T10:18:14.114Z,60.3
2018-09-01T10:19:04.936Z,60.4
2018-09-01T10:19:54.853Z,60.4
2018-09-01T10:20:45.546Z,60.5
2018-09-01T10:21:35.629Z,60.6
2018-09-01T10:22:25.448Z,60.6
2018-09-01T10:23:15.250Z,60.7
2018-09-01T10:24:19.691Z,60.8
2018-09-01T10:25:10.553Z,60.8
2018-09-01T10:25:45.933Z,60.9
2018-09-01T10:26:50.796Z,60.9
2018-09-01T10:27:25.295Z,61
2018-09-01T10:28:15.831Z,61.1
2018-09-01T10:29:20.585Z,61.2
2018-09-01T10:29:56.320Z,61.2
2018-09-01T10:31:01.206Z,61.3
2018-09-01T10:31:36.380Z,61.4
2018-09-01T10:32:25.392Z,61.4
2018-09-01T10:33:16.325Z,61.4
2018-09-01T10:34:07.196Z,61.5
2018-09-01T10:34:55.965Z,61.6
2018-09-01T10:35:46.663Z,61.6
2018-09-01T10:36:36.775Z,61.7
2018-09-01T10:37:41.405Z,61.8
2018-09-01T10:38:31.954Z,61.8
2018-09-01T10:39:06.741Z,61.9
2018-09-01T10:39:56.896Z,61.9
2018-09-01T10:40:46.080Z,62
2018-09-01T10:41:36.676Z,62.1
2018-09-01T10:42:27.350Z,62.1
2018-09-01T10:43:18.373Z,62.2
2018-09-01T10:44:22.420Z,62.3
2018-09-01T10:45:11.877Z,62.3
2018-09-01T10:45:48.100Z,62.4
2018-09-01T10:46:37.348Z,62.4
2018-09-01T10:47:27.423Z,62.4
2018-09-01T10:48:32.377Z,62.5
2018-09-01T10:49:07.285Z,62.6
2018-09-01T10:49:57.884Z,62.6
2018-09-01T10:50:47.672Z,62.7
2018-09-01T10:51:52.402Z,62.8
2018-09-01T10:52:43.523Z,62.8
2018-09-01T10:53:17.879Z,62.9
2018-09-01T10:54:08.152Z,62.9
2018-09-01T10:54:58.467Z,63
2018-09-01T10:55:47.519Z,63.1
2018-09-01T10:56:37.856Z,63.1
2018-09-01T10:57:42.991Z,63.2
2018-09-01T10:58:18.676Z,63.3
2018-09-01T10:59:10.784Z,63.3
2018-09-01T10:59:58.569Z,63.3
2018-09-01T11:00:48.653Z,63.4
2018-09-01T11:03:00.212Z,63.5
2018-09-01T11:03:18.352Z,63.6
2018-09-01T11:04:24.307Z,63.6
2018-09-01T11:04:58.735Z,63.7
2018-09-01T11:05:48.912Z,63.7
2018-09-01T11:07:29.272Z,63.8
2018-09-01T11:08:19.064Z,63.8
2018-09-01T11:09:23.166Z,63.9
2018-09-01T11:09:58.926Z,64
2018-09-01T11:10:49.337Z,64
2018-09-01T11:11:38.770Z,64.1
2018-09-01T11:12:28.807Z,64.1
2018-09-01T11:13:18.967Z,64.2
2018-09-01T11:14:09.707Z,64.3
2018-09-01T11:14:58.694Z,64.3
2018-09-01T11:15:49.435Z,64.3
2018-09-01T11:16:39.294Z,64.4
2018-09-01T11:17:29.605Z,64.4
2018-09-01T11:18:20.182Z,64.5
2018-09-01T11:19:10.107Z,64.5
2018-09-01T11:20:00.276Z,64.6
2018-09-01T11:21:05.695Z,64.6
2018-09-01T11:21:40.919Z,64.7
2018-09-01T11:22:30.082Z,64.7
2018-09-01T11:24:14.918Z,64.8
2018-09-01T11:25:05.696Z,64.9
2018-09-01T11:25:55.221Z,64.9
2018-09-01T11:26:45.029Z,64.9
2018-09-01T11:27:36.172Z,65
2018-09-01T11:28:25.663Z,65
2018-09-01T11:29:15.426Z,65.1
2018-09-01T11:30:05.054Z,65.1
2018-09-01T11:30:54.566Z,65.2
2018-09-01T11:32:00.548Z,65.3
2018-09-01T11:32:34.991Z,65.3
2018-09-01T11:33:41.190Z,65.3
2018-09-01T11:34:15.900Z,65.4
2018-09-01T11:35:21.263Z,65.4
2018-09-01T11:35:55.808Z,65.4
2018-09-01T11:36:46.086Z,65.5
2018-09-01T11:37:36.105Z,65.5
2018-09-01T11:38:25.970Z,65.6
2018-09-01T11:39:16.472Z,65.6
2018-09-01T11:40:20.887Z,65.6
2018-09-01T11:40:56.023Z,65.7
2018-09-01T11:41:46.251Z,65.8
2018-09-01T11:42:36.909Z,65.8
2018-09-01T11:43:26.139Z,65.8
2018-09-01T11:44:16.207Z,65.9
2018-09-01T11:45:05.940Z,65.9
2018-09-01T11:46:10.917Z,65.9
2018-09-01T11:47:01.203Z,66
2018-09-01T11:47:36.453Z,66
2018-09-01T11:48:27.035Z,66.1
2018-09-01T11:49:17.226Z,66.1
2018-09-01T11:50:07.422Z,66.1
2018-09-01T11:50:57.670Z,66.2
2018-09-01T11:51:47.006Z,66.3
2018-09-01T11:52:37.518Z,66.3
2018-09-01T11:54:31.887Z,66.3
2018-09-01T11:55:07.504Z,66.4
2018-09-01T11:55:57.277Z,66.4
2018-09-01T11:56:47.379Z,66.4
2018-09-01T11:57:37.440Z,66.5
2018-09-01T11:58:27.549Z,66.5
2018-09-01T11:59:32.243Z,66.6
2018-09-01T12:00:07.422Z,66.6
2018-09-01T12:01:12.655Z,66.6
2018-09-01T12:01:48.435Z,66.7
2018-09-01T12:02:38.522Z,66.7
2018-09-01T12:03:42.948Z,66.8
2018-09-01T12:04:32.326Z,66.8
2018-09-01T12:05:08.047Z,66.8
2018-09-01T12:05:58.113Z,66.8
2018-09-01T12:07:02.242Z,66.9
2018-09-01T12:07:37.998Z,66.9
2018-09-01T12:08:28.552Z,66.9
2018-09-01T12:09:33.367Z,66.9
2018-09-01T12:10:08.405Z,67
2018-09-01T12:10:58.725Z,67
2018-09-01T12:11:48.375Z,67.1
2018-09-01T12:12:39.122Z,67.1
2018-09-01T12:13:43.234Z,67.1
2018-09-01T12:14:17.967Z,67.1
2018-09-01T12:15:08.832Z,67.2